Papere Vagabonde

Aviosuperficie Caposile LIKI

Pista 04


Pista 22

Le immagini vengono aggiornate ogni minuto
Cliccare sull'immagine per l'ingrandimento.

METAR LIPZ

LIPZ 141050Z 15008KT CAVOK 24/16 Q1019 NOSIG

TAF LIPZ 140500Z 1406/1512 14010KT 9999 SCT060
  BECMG 1422/1424 VRB05KT


weather station active


      


Alba: 05:24
Tramonto: 20:56